Time;durP1;ratioP1;P1;durP2;ratioP2;P2;SDS_P1;SDS_P2;PMS_P1;PMS_P2;Temp;Humidity;BMP_temperature;BMP_pressure;BME280_temperature;BME280_humidity;BME280_pressure;Samples;Min_cycle;Max_cycle;Signal;HPM_P1;HPM_P2
2022/11/27 00:00:40;;;;;;;;;;;19.70;51.80;;;;;;5029556;28;19958;-74
2022/11/27 00:03:05;;;;;;;;;;;19.70;51.90;;;;;;5021201;28;19916;-74
2022/11/27 00:05:31;;;;;;;;;;;19.70;51.80;;;;;;5024866;28;20028;-75
2022/11/27 00:07:56;;;;;;;;;;;19.70;51.90;;;;;;5042114;28;19920;-74
2022/11/27 00:10:21;;;;;;;;;;;19.70;51.90;;;;;;5043040;28;19921;-74
2022/11/27 00:12:47;;;;;;;;;;;19.70;51.90;;;;;;5026027;28;19916;-74
2022/11/27 00:15:12;;;;;;;;;;;19.60;51.80;;;;;;5026364;28;19962;-74
2022/11/27 00:17:38;;;;;;;;;;;19.70;51.80;;;;;;5027388;28;20281;-73
2022/11/27 00:20:04;;;;;;;;;;;19.60;51.90;;;;;;5028077;28;20362;-75
2022/11/27 00:22:29;;;;;;;;;;;19.60;51.90;;;;;;5045939;28;20232;-75
2022/11/27 00:24:54;;;;;;;;;;;19.60;51.80;;;;;;5025546;28;19927;-74
2022/11/27 00:27:20;;;;;;;;;;;19.60;51.90;;;;;;5048528;28;19917;-73
2022/11/27 00:29:45;;;;;;;;;;;19.60;51.90;;;;;;5045627;28;19957;-73
2022/11/27 00:32:11;;;;;;;;;;;19.50;51.90;;;;;;5044322;28;19912;-74
2022/11/27 00:34:36;;;;;;;;;;;19.60;51.80;;;;;;5044698;28;19929;-74
2022/11/27 00:37:02;;;;;;;;;;;19.60;51.80;;;;;;5026419;28;19950;-74
2022/11/27 00:39:27;;;;;;;;;;;19.50;51.80;;;;;;5041915;28;20014;-73
2022/11/27 00:41:53;;;;;;;;;;;19.50;51.80;;;;;;5041693;28;19913;-74
2022/11/27 00:44:18;;;;;;;;;;;19.50;51.80;;;;;;5044352;28;19921;-74
2022/11/27 00:46:44;;;;;;;;;;;19.50;51.80;;;;;;5027904;28;19917;-73
2022/11/27 00:49:09;;;;;;;;;;;19.50;51.80;;;;;;5026037;28;19955;-74
2022/11/27 00:51:37;;;;;;;;;;;19.50;51.80;;;;;;5024570;28;21299;-73
2022/11/27 00:54:03;;;;;;;;;;;19.50;51.80;;;;;;5025502;28;19921;-73
2022/11/27 00:56:29;;;;;;;;;;;19.40;51.80;;;;;;5026051;28;19914;-74
2022/11/27 00:58:55;;;;;;;;;;;19.40;51.70;;;;;;5024605;28;19912;-74
2022/11/27 01:01:21;;;;;;;;;;;19.40;51.70;;;;;;5033964;28;19921;-74
2022/11/27 01:03:47;;;;;;;;;;;19.40;51.60;;;;;;5047450;28;19913;-74
2022/11/27 01:06:12;;;;;;;;;;;19.40;51.60;;;;;;5047846;28;20270;-74
2022/11/27 01:08:38;;;;;;;;;;;19.30;51.60;;;;;;5043808;28;19917;-73
2022/11/27 01:11:03;;;;;;;;;;;19.30;51.60;;;;;;5023834;28;19974;-74
2022/11/27 01:13:30;;;;;;;;;;;19.30;51.60;;;;;;5042461;28;19999;-75
2022/11/27 01:16:02;;;;;;;;;;;19.30;51.60;;;;;;5023350;28;20288;-73
2022/11/27 01:18:28;;;;;;;;;;;19.30;51.60;;;;;;5043479;28;19913;-73
2022/11/27 01:20:53;;;;;;;;;;;19.30;51.50;;;;;;5025086;28;19912;-74
2022/11/27 01:23:19;;;;;;;;;;;19.30;51.50;;;;;;5024784;28;19925;-73
2022/11/27 01:25:44;;;;;;;;;;;19.30;51.50;;;;;;5042844;28;19928;-74
2022/11/27 01:28:09;;;;;;;;;;;19.30;51.60;;;;;;5043132;28;19913;-74
2022/11/27 01:30:38;;;;;;;;;;;19.20;51.50;;;;;;5042114;28;19964;-74
2022/11/27 01:33:03;;;;;;;;;;;19.20;51.50;;;;;;5043218;28;19943;-74
2022/11/27 01:35:29;;;;;;;;;;;19.30;51.50;;;;;;5043017;28;20285;-74
2022/11/27 01:37:54;;;;;;;;;;;19.20;51.30;;;;;;5044754;28;19925;-74
2022/11/27 01:40:20;;;;;;;;;;;19.20;51.30;;;;;;5041324;28;19913;-74
2022/11/27 01:42:45;;;;;;;;;;;19.20;51.30;;;;;;5024984;28;19962;-74
2022/11/27 01:45:11;;;;;;;;;;;19.20;51.40;;;;;;5024071;28;19920;-74
2022/11/27 01:47:38;;;;;;;;;;;19.20;51.30;;;;;;5024226;28;19916;-73
2022/11/27 01:50:08;;;;;;;;;;;19.10;51.30;;;;;;5025951;28;19917;-74
2022/11/27 01:52:34;;;;;;;;;;;19.10;51.20;;;;;;5043806;28;20011;-74
2022/11/27 01:55:01;;;;;;;;;;;19.10;51.20;;;;;;5028529;28;19939;-73
2022/11/27 01:57:28;;;;;;;;;;;19.10;51.20;;;;;;5045221;28;19921;-74
2022/11/27 01:59:53;;;;;;;;;;;19.10;51.20;;;;;;5046262;28;20389;-74
2022/11/27 02:02:19;;;;;;;;;;;19.10;51.20;;;;;;5044399;28;19921;-74
2022/11/27 02:04:44;;;;;;;;;;;19.10;51.30;;;;;;5045539;28;19924;-74
2022/11/27 02:07:10;;;;;;;;;;;19.00;51.20;;;;;;5027241;28;20063;-74
2022/11/27 02:09:35;;;;;;;;;;;19.00;51.40;;;;;;5028179;28;19916;-75
2022/11/27 02:12:03;;;;;;;;;;;19.00;51.40;;;;;;5040157;28;20319;-74
2022/11/27 02:14:31;;;;;;;;;;;19.00;51.40;;;;;;5028310;28;20356;-74
2022/11/27 02:17:05;;;;;;;;;;;19.00;51.40;;;;;;5028125;28;19960;-74
2022/11/27 02:19:57;;;;;;;;;;;19.00;51.30;;;;;;5047514;28;19917;-74
2022/11/27 02:22:28;;;;;;;;;;;19.00;51.20;;;;;;5028009;28;19917;-73
2022/11/27 02:25:01;;;;;;;;;;;19.10;51.40;;;;;;5010410;28;19943;-73
2022/11/27 02:27:33;;;;;;;;;;;19.10;51.20;;;;;;5007821;28;19939;-74
2022/11/27 02:29:59;;;;;;;;;;;19.10;51.00;;;;;;5045202;28;19923;-73
2022/11/27 02:32:42;;;;;;;;;;;19.30;50.90;;;;;;5028362;28;19913;-74
2022/11/27 02:35:13;;;;;;;;;;;19.40;50.60;;;;;;5028652;28;19917;-74
2022/11/27 02:37:42;;;;;;;;;;;19.50;50.30;;;;;;5028782;28;20023;-73
2022/11/27 02:40:27;;;;;;;;;;;19.60;50.00;;;;;;5043230;28;19967;-73
2022/11/27 02:43:01;;;;;;;;;;;19.70;49.80;;;;;;5028102;28;20339;-74
2022/11/27 02:45:28;;;;;;;;;;;19.90;49.70;;;;;;5027070;28;19968;-73
2022/11/27 02:47:53;;;;;;;;;;;20.00;49.40;;;;;;5012405;28;19932;-74
2022/11/27 02:50:20;;;;;;;;;;;20.00;49.20;;;;;;5026863;28;20292;-73
2022/11/27 02:52:45;;;;;;;;;;;20.10;49.00;;;;;;5037479;28;19964;-74
2022/11/27 02:55:11;;;;;;;;;;;20.20;48.90;;;;;;5026198;28;19956;-74
2022/11/27 02:57:37;;;;;;;;;;;20.20;48.70;;;;;;5026290;28;19917;-73
2022/11/27 03:00:03;;;;;;;;;;;20.20;48.60;;;;;;5044397;28;19970;-73
2022/11/27 03:02:38;;;;;;;;;;;20.30;48.60;;;;;;5028242;28;20020;-74
2022/11/27 03:05:03;;;;;;;;;;;20.30;48.50;;;;;;5044586;28;20337;-74
2022/11/27 03:07:29;;;;;;;;;;;20.30;48.50;;;;;;5032553;28;19917;-73
2022/11/27 03:09:55;;;;;;;;;;;20.30;48.50;;;;;;5028852;28;19913;-74
2022/11/27 03:12:21;;;;;;;;;;;20.30;48.50;;;;;;5034992;28;20345;-74
2022/11/27 03:14:46;;;;;;;;;;;20.30;48.50;;;;;;5050508;28;19967;-74
2022/11/27 03:17:12;;;;;;;;;;;20.30;48.60;;;;;;5027746;28;19970;-72
2022/11/27 03:19:40;;;;;;;;;;;20.20;48.50;;;;;;5042993;28;20364;-74
2022/11/27 03:22:06;;;;;;;;;;;20.20;48.60;;;;;;5026972;28;19913;-74
2022/11/27 03:24:32;;;;;;;;;;;20.20;48.50;;;;;;5045029;28;20280;-74
2022/11/27 03:26:57;;;;;;;;;;;20.20;48.50;;;;;;5043213;28;19920;-74
2022/11/27 03:29:31;;;;;;;;;;;20.10;48.60;;;;;;5044948;28;20381;-74
2022/11/27 03:31:57;;;;;;;;;;;20.10;48.60;;;;;;5026224;28;20365;-74
2022/11/27 03:34:22;;;;;;;;;;;20.10;48.70;;;;;;5027998;28;19924;-73
2022/11/27 03:36:47;;;;;;;;;;;20.10;48.70;;;;;;5026734;28;19913;-74
2022/11/27 03:39:13;;;;;;;;;;;20.00;48.60;;;;;;5043560;28;21447;-73
2022/11/27 03:41:44;;;;;;;;;;;20.00;48.70;;;;;;5024703;28;19966;-74
2022/11/27 03:44:29;;;;;;;;;;;20.00;48.70;;;;;;5008976;28;19968;-73
2022/11/27 03:47:19;;;;;;;;;;;20.00;48.80;;;;;;5043007;28;20381;-73
2022/11/27 03:50:06;;;;;;;;;;;19.90;48.80;;;;;;5026753;28;19924;-73
2022/11/27 03:52:31;;;;;;;;;;;19.90;48.80;;;;;;5042826;28;19928;-73
2022/11/27 03:55:12;;;;;;;;;;;19.90;48.80;;;;;;5042331;28;19912;-71
2022/11/27 03:57:46;;;;;;;;;;;19.90;48.80;;;;;;5043005;28;20249;-73
2022/11/27 04:00:12;;;;;;;;;;;19.90;48.80;;;;;;5027025;28;21105;-72
2022/11/27 04:02:42;;;;;;;;;;;19.90;48.80;;;;;;5044639;28;19921;-74
2022/11/27 04:05:07;;;;;;;;;;;19.90;48.80;;;;;;5041272;28;20392;-73
2022/11/27 04:07:33;;;;;;;;;;;19.90;48.60;;;;;;5038158;28;19955;-73
2022/11/27 04:09:58;;;;;;;;;;;20.00;48.70;;;;;;5023052;28;19924;-73
2022/11/27 04:12:24;;;;;;;;;;;19.90;48.60;;;;;;5041801;28;19920;-73
2022/11/27 04:14:49;;;;;;;;;;;19.90;48.60;;;;;;5040348;28;19943;-73
2022/11/27 04:17:14;;;;;;;;;;;19.90;48.60;;;;;;5044919;28;19912;-73
2022/11/27 04:19:40;;;;;;;;;;;19.90;48.60;;;;;;5042899;28;19958;-73
2022/11/27 04:22:05;;;;;;;;;;;19.80;48.60;;;;;;5027108;28;19913;-73
2022/11/27 04:24:31;;;;;;;;;;;19.80;48.60;;;;;;5041225;28;20011;-74
2022/11/27 04:26:56;;;;;;;;;;;19.80;48.60;;;;;;5025644;28;19912;-72
2022/11/27 04:29:22;;;;;;;;;;;19.80;48.70;;;;;;5044211;28;19913;-74
2022/11/27 04:31:47;;;;;;;;;;;19.80;48.70;;;;;;5044765;28;20092;-74
2022/11/27 04:34:13;;;;;;;;;;;19.70;48.60;;;;;;5041610;28;20063;-74
2022/11/27 04:36:38;;;;;;;;;;;19.80;48.80;;;;;;5045315;28;19928;-74
2022/11/27 04:39:03;;;;;;;;;;;19.70;48.70;;;;;;5039903;28;19928;-73
2022/11/27 04:41:29;;;;;;;;;;;19.70;48.70;;;;;;5044087;28;20015;-74
2022/11/27 04:43:54;;;;;;;;;;;19.70;48.70;;;;;;5040793;28;19921;-74
2022/11/27 04:46:20;;;;;;;;;;;19.70;48.70;;;;;;5026815;28;19913;-73
2022/11/27 04:48:45;;;;;;;;;;;19.70;48.80;;;;;;5040782;28;20426;-74
2022/11/27 04:51:11;;;;;;;;;;;19.70;48.80;;;;;;5025228;28;20446;-74
2022/11/27 04:53:36;;;;;;;;;;;19.70;48.70;;;;;;5040986;28;20355;-74
2022/11/27 04:56:02;;;;;;;;;;;19.60;48.70;;;;;;5043431;28;20349;-74
2022/11/27 04:58:27;;;;;;;;;;;19.70;48.80;;;;;;5041138;28;19919;-73
2022/11/27 05:00:53;;;;;;;;;;;19.60;48.70;;;;;;5042784;28;19921;-74
2022/11/27 05:03:18;;;;;;;;;;;19.70;48.80;;;;;;5024817;28;20393;-74
2022/11/27 05:05:44;;;;;;;;;;;19.60;48.70;;;;;;5027707;28;19927;-74
2022/11/27 05:08:09;;;;;;;;;;;19.60;48.70;;;;;;5042403;28;19921;-74
2022/11/27 05:10:34;;;;;;;;;;;19.60;48.70;;;;;;5039206;28;19912;-73
2022/11/27 05:13:00;;;;;;;;;;;19.60;48.60;;;;;;5024412;28;19916;-74
2022/11/27 05:15:25;;;;;;;;;;;19.60;48.60;;;;;;5042257;28;19960;-74
2022/11/27 05:17:51;;;;;;;;;;;19.70;48.60;;;;;;5025043;28;19916;-74
2022/11/27 05:20:16;;;;;;;;;;;19.70;48.50;;;;;;5025444;28;19913;-74
2022/11/27 05:22:43;;;;;;;;;;;19.70;48.40;;;;;;5042540;28;19921;-74
2022/11/27 05:25:08;;;;;;;;;;;19.70;48.30;;;;;;5026059;28;19961;-73
2022/11/27 05:27:33;;;;;;;;;;;19.70;48.30;;;;;;5044873;28;20296;-73
2022/11/27 05:29:59;;;;;;;;;;;19.70;48.20;;;;;;5046908;28;20008;-73
2022/11/27 05:32:24;;;;;;;;;;;19.70;48.20;;;;;;5053999;28;19913;-75
2022/11/27 05:34:50;;;;;;;;;;;19.80;48.20;;;;;;5054067;28;19917;-73
2022/11/27 05:37:15;;;;;;;;;;;19.70;47.90;;;;;;5052453;28;19923;-74
2022/11/27 05:39:41;;;;;;;;;;;19.70;47.90;;;;;;5053620;28;19924;-74
2022/11/27 05:42:06;;;;;;;;;;;19.80;47.90;;;;;;5054185;28;19909;-73
2022/11/27 05:44:32;;;;;;;;;;;19.70;47.80;;;;;;5026008;28;19982;-73
2022/11/27 05:46:57;;;;;;;;;;;19.70;47.90;;;;;;5026911;28;20389;-73
2022/11/27 05:49:22;;;;;;;;;;;19.70;48.00;;;;;;5045541;28;19917;-74
2022/11/27 05:51:48;;;;;;;;;;;19.70;48.00;;;;;;5047012;28;19971;-73
2022/11/27 05:54:13;;;;;;;;;;;19.70;48.00;;;;;;5045151;28;19970;-73
2022/11/27 05:56:39;;;;;;;;;;;19.70;48.00;;;;;;5029132;28;19928;-73
2022/11/27 05:59:04;;;;;;;;;;;19.60;48.00;;;;;;5045545;28;19920;-74
2022/11/27 06:01:30;;;;;;;;;;;19.60;48.00;;;;;;5044974;28;19919;-74
2022/11/27 06:03:55;;;;;;;;;;;19.60;48.00;;;;;;5028412;28;19956;-74
2022/11/27 06:06:20;;;;;;;;;;;19.60;48.00;;;;;;5022619;28;19928;-74
2022/11/27 06:08:46;;;;;;;;;;;19.60;48.10;;;;;;5046048;28;21487;-74
2022/11/27 06:11:15;;;;;;;;;;;19.60;48.10;;;;;;5046163;28;20385;-73
2022/11/27 06:13:41;;;;;;;;;;;19.60;48.10;;;;;;5013014;28;19920;-73
2022/11/27 06:16:10;;;;;;;;;;;19.60;48.10;;;;;;5028184;28;19936;-73
2022/11/27 06:18:35;;;;;;;;;;;19.50;48.70;;;;;;5028660;28;19916;-73
2022/11/27 06:21:04;;;;;;;;;;;19.50;48.10;;;;;;5047014;28;19939;-74
2022/11/27 06:23:29;;;;;;;;;;;19.50;48.00;;;;;;5044904;28;20009;-73
2022/11/27 06:25:55;;;;;;;;;;;19.50;48.00;;;;;;5045476;28;20004;-74
2022/11/27 06:28:20;;;;;;;;;;;19.50;48.00;;;;;;5028394;28;19956;-74
2022/11/27 06:30:46;;;;;;;;;;;19.50;48.00;;;;;;5044894;28;19912;-73
2022/11/27 06:33:11;;;;;;;;;;;19.50;48.00;;;;;;5045326;28;20185;-74
2022/11/27 06:35:37;;;;;;;;;;;19.50;48.00;;;;;;5045581;28;19913;-73
2022/11/27 06:38:02;;;;;;;;;;;19.50;48.10;;;;;;5028292;28;19969;-74
2022/11/27 06:40:28;;;;;;;;;;;19.50;48.10;;;;;;5025310;28;19913;-74
2022/11/27 06:42:53;;;;;;;;;;;19.50;48.00;;;;;;5025958;28;19931;-74
2022/11/27 06:45:18;;;;;;;;;;;19.50;47.90;;;;;;5049781;28;19970;-73
2022/11/27 06:47:44;;;;;;;;;;;19.50;47.90;;;;;;5044523;28;19925;-74
2022/11/27 06:50:09;;;;;;;;;;;19.50;47.80;;;;;;5045973;28;19913;-74
2022/11/27 06:52:35;;;;;;;;;;;19.50;47.70;;;;;;5027528;28;19958;-73
2022/11/27 06:55:00;;;;;;;;;;;19.60;47.80;;;;;;5027971;28;19972;-75
2022/11/27 06:57:26;;;;;;;;;;;19.60;47.70;;;;;;5044544;28;19913;-73
2022/11/27 06:59:51;;;;;;;;;;;19.60;47.50;;;;;;5025404;28;19920;-74
2022/11/27 07:02:16;;;;;;;;;;;19.60;47.50;;;;;;5042925;28;19928;-74
2022/11/27 07:04:42;;;;;;;;;;;19.60;47.60;;;;;;5047924;28;20364;-74
2022/11/27 07:07:07;;;;;;;;;;;19.60;47.40;;;;;;5028274;28;20328;-74
2022/11/27 07:09:33;;;;;;;;;;;19.70;47.40;;;;;;5042914;28;19945;-74
2022/11/27 07:11:58;;;;;;;;;;;19.70;47.30;;;;;;5050068;28;20361;-72
2022/11/27 07:14:24;;;;;;;;;;;19.70;47.30;;;;;;5049971;28;19920;-73
2022/11/27 07:16:49;;;;;;;;;;;19.70;47.20;;;;;;5043137;28;19912;-74
2022/11/27 07:19:15;;;;;;;;;;;19.70;47.20;;;;;;5027202;28;19921;-74
2022/11/27 07:21:40;;;;;;;;;;;19.60;47.20;;;;;;5044365;28;20015;-75
2022/11/27 07:24:06;;;;;;;;;;;19.60;47.20;;;;;;5044984;28;19924;-72
2022/11/27 07:26:31;;;;;;;;;;;19.70;47.20;;;;;;5043756;28;19921;-73
2022/11/27 07:28:57;;;;;;;;;;;19.60;47.00;;;;;;5044301;28;20280;-74
2022/11/27 07:31:23;;;;;;;;;;;19.60;47.00;;;;;;5024069;28;19913;-74
2022/11/27 07:33:50;;;;;;;;;;;19.60;47.00;;;;;;5044210;28;19944;-74
2022/11/27 07:36:17;;;;;;;;;;;19.60;47.00;;;;;;5041784;28;20451;-73
2022/11/27 07:38:42;;;;;;;;;;;19.60;47.00;;;;;;5043346;28;20162;-73
2022/11/27 07:41:08;;;;;;;;;;;19.60;47.00;;;;;;5048670;28;19916;-74
2022/11/27 07:43:33;;;;;;;;;;;19.60;47.00;;;;;;5024759;28;20003;-73
2022/11/27 07:46:22;;;;;;;;;;;19.60;47.00;;;;;;5025539;28;19979;-74
2022/11/27 07:48:48;;;;;;;;;;;19.60;47.00;;;;;;5025309;28;19936;-74
2022/11/27 07:51:14;;;;;;;;;;;19.60;47.10;;;;;;5027469;28;20373;-74
2022/11/27 07:53:39;;;;;;;;;;;19.60;47.00;;;;;;5025162;28;20248;-73
2022/11/27 07:56:05;;;;;;;;;;;19.60;47.00;;;;;;5028977;28;20295;-74
2022/11/27 07:58:31;;;;;;;;;;;19.60;46.90;;;;;;5021874;28;19917;-73
2022/11/27 08:00:56;;;;;;;;;;;19.60;46.90;;;;;;5021032;28;19916;-74
2022/11/27 08:03:22;;;;;;;;;;;19.60;46.90;;;;;;5034263;28;19974;-73
2022/11/27 08:05:47;;;;;;;;;;;19.60;46.90;;;;;;5029493;28;19924;-73
2022/11/27 08:08:13;;;;;;;;;;;19.60;46.90;;;;;;5047547;28;19923;-73
2022/11/27 08:10:38;;;;;;;;;;;19.50;46.80;;;;;;5048078;28;20385;-74
2022/11/27 08:13:04;;;;;;;;;;;19.50;46.90;;;;;;5025384;28;19917;-73
2022/11/27 08:15:29;;;;;;;;;;;19.50;46.90;;;;;;5041501;28;21308;-74
2022/11/27 08:17:55;;;;;;;;;;;19.50;46.80;;;;;;5042659;28;20003;-75
2022/11/27 08:20:20;;;;;;;;;;;19.50;47.00;;;;;;5043917;28;19951;-74
2022/11/27 08:22:46;;;;;;;;;;;19.40;46.80;;;;;;5045203;28;19921;-74
2022/11/27 08:25:11;;;;;;;;;;;19.50;47.00;;;;;;5025502;28;19924;-73
2022/11/27 08:27:37;;;;;;;;;;;19.50;47.00;;;;;;5044087;28;20408;-73
2022/11/27 08:30:02;;;;;;;;;;;19.50;47.00;;;;;;5021635;28;19917;-73
2022/11/27 08:32:28;;;;;;;;;;;19.40;46.90;;;;;;5043474;28;19947;-74
2022/11/27 08:34:53;;;;;;;;;;;19.40;46.90;;;;;;5025307;28;19943;-72
2022/11/27 08:37:20;;;;;;;;;;;19.40;47.00;;;;;;5041892;28;19917;-74
2022/11/27 08:39:46;;;;;;;;;;;19.50;47.00;;;;;;5042314;28;19925;-74
2022/11/27 08:42:11;;;;;;;;;;;19.40;46.90;;;;;;5041024;28;20048;-73
2022/11/27 08:44:37;;;;;;;;;;;19.50;47.00;;;;;;5044507;28;20027;-73
2022/11/27 08:47:02;;;;;;;;;;;19.40;46.90;;;;;;5042069;28;19919;-74
2022/11/27 08:49:27;;;;;;;;;;;19.50;47.00;;;;;;5023746;28;19924;-74
2022/11/27 08:51:53;;;;;;;;;;;19.40;46.90;;;;;;5043836;28;19921;-74
2022/11/27 08:54:18;;;;;;;;;;;19.50;46.90;;;;;;5040290;28;19917;-73
2022/11/27 08:56:44;;;;;;;;;;;19.50;46.80;;;;;;5042038;28;19917;-74
2022/11/27 08:59:10;;;;;;;;;;;19.40;46.80;;;;;;5047542;28;19912;-75
2022/11/27 09:01:35;;;;;;;;;;;19.40;46.90;;;;;;5025677;28;20285;-73
2022/11/27 09:04:01;;;;;;;;;;;19.40;47.00;;;;;;5031313;28;20004;-74
2022/11/27 09:06:27;;;;;;;;;;;19.40;46.90;;;;;;5045903;28;19913;-74
2022/11/27 09:08:54;;;;;;;;;;;19.40;46.80;;;;;;5030690;28;19921;-73
2022/11/27 09:11:20;;;;;;;;;;;19.40;46.80;;;;;;5043531;28;19920;-74
2022/11/27 09:13:45;;;;;;;;;;;19.40;46.80;;;;;;5044414;28;19913;-73
2022/11/27 09:16:11;;;;;;;;;;;19.40;46.90;;;;;;5042835;28;19964;-73
2022/11/27 09:18:37;;;;;;;;;;;19.30;46.90;;;;;;5024328;28;20000;-73
2022/11/27 09:21:06;;;;;;;;;;;19.40;47.00;;;;;;5024646;28;20012;-74
2022/11/27 09:23:32;;;;;;;;;;;19.40;46.90;;;;;;5024382;28;20011;-74
2022/11/27 09:25:58;;;;;;;;;;;19.40;46.90;;;;;;5029625;28;20012;-73
2022/11/27 09:28:23;;;;;;;;;;;19.40;46.90;;;;;;5043025;28;20363;-73
2022/11/27 09:30:53;;;;;;;;;;;19.40;46.80;;;;;;5026138;28;19913;-73
2022/11/27 09:33:18;;;;;;;;;;;19.40;46.80;;;;;;5026783;28;19913;-73
2022/11/27 09:35:44;;;;;;;;;;;19.50;46.80;;;;;;5046105;28;19923;-73
2022/11/27 09:38:09;;;;;;;;;;;19.40;46.70;;;;;;5044317;28;19935;-74
2022/11/27 09:40:35;;;;;;;;;;;19.40;46.80;;;;;;5039455;28;20011;-73
2022/11/27 09:43:05;;;;;;;;;;;19.40;46.90;;;;;;5043792;28;19921;-73
2022/11/27 09:45:30;;;;;;;;;;;19.40;46.90;;;;;;5025016;28;19925;-73
2022/11/27 09:47:57;;;;;;;;;;;19.40;46.90;;;;;;5034844;28;19963;-73
2022/11/27 09:50:24;;;;;;;;;;;19.40;47.00;;;;;;5042933;28;20076;-73
2022/11/27 09:53:10;;;;;;;;;;;19.40;46.90;;;;;;5044621;28;19919;-73
2022/11/27 09:55:36;;;;;;;;;;;19.40;47.00;;;;;;5045870;28;19917;-73
2022/11/27 09:58:04;;;;;;;;;;;19.40;47.00;;;;;;5038896;28;20337;-73
2022/11/27 10:00:30;;;;;;;;;;;19.50;47.10;;;;;;5043347;28;19913;-73
2022/11/27 10:02:55;;;;;;;;;;;19.50;47.00;;;;;;5026034;28;19920;-73
2022/11/27 10:05:24;;;;;;;;;;;19.50;47.00;;;;;;5024390;28;19924;-74
2022/11/27 10:07:57;;;;;;;;;;;19.50;47.10;;;;;;5039444;28;19919;-74
2022/11/27 10:10:31;;;;;;;;;;;19.50;46.90;;;;;;5046431;28;19962;-73
2022/11/27 10:13:00;;;;;;;;;;;19.40;46.90;;;;;;5030209;28;19976;-74
2022/11/27 10:15:29;;;;;;;;;;;19.50;47.00;;;;;;5036569;28;20444;-74
2022/11/27 10:17:55;;;;;;;;;;;19.40;47.00;;;;;;5049223;28;19917;-73
2022/11/27 10:20:29;;;;;;;;;;;19.40;46.90;;;;;;5028301;28;19962;-73
2022/11/27 10:23:03;;;;;;;;;;;19.40;47.00;;;;;;5029175;28;19913;-74
2022/11/27 10:25:31;;;;;;;;;;;19.40;47.00;;;;;;5028041;28;19917;-72
2022/11/27 10:28:03;;;;;;;;;;;19.40;47.00;;;;;;5029009;28;19920;-73
2022/11/27 10:30:30;;;;;;;;;;;19.40;46.90;;;;;;5047815;28;19952;-73
2022/11/27 10:32:56;;;;;;;;;;;19.30;47.00;;;;;;5032904;28;19913;-73
2022/11/27 10:35:22;;;;;;;;;;;19.30;47.10;;;;;;5032833;28;19959;-74
2022/11/27 10:37:51;;;;;;;;;;;19.30;48.00;;;;;;5015081;28;19917;-73
2022/11/27 10:40:22;;;;;;;;;;;19.20;47.50;;;;;;5034695;28;20387;-72
2022/11/27 10:42:58;;;;;;;;;;;19.20;47.40;;;;;;5020207;28;19916;-73
2022/11/27 10:45:35;;;;;;;;;;;19.20;47.20;;;;;;5035880;28;19964;-74
2022/11/27 10:48:01;;;;;;;;;;;19.30;47.30;;;;;;5033872;28;19997;-73
2022/11/27 10:50:26;;;;;;;;;;;19.20;47.20;;;;;;5050237;28;20003;-73
2022/11/27 10:52:56;;;;;;;;;;;19.20;47.20;;;;;;5037024;28;19921;-73
2022/11/27 10:55:34;;;;;;;;;;;19.20;47.20;;;;;;5035852;28;19912;-74
2022/11/27 10:58:05;;;;;;;;;;;19.30;47.30;;;;;;5036864;28;19920;-73
2022/11/27 11:00:30;;;;;;;;;;;19.20;47.20;;;;;;5036525;28;20003;-73
2022/11/27 11:03:03;;;;;;;;;;;19.30;47.40;;;;;;5052981;28;19968;-72
2022/11/27 11:05:29;;;;;;;;;;;19.30;47.20;;;;;;5033099;28;19925;-73
2022/11/27 11:07:56;;;;;;;;;;;19.30;47.30;;;;;;5036740;28;20458;-73
2022/11/27 11:10:23;;;;;;;;;;;19.30;47.10;;;;;;5035627;28;20003;-72
2022/11/27 11:12:49;;;;;;;;;;;19.30;47.10;;;;;;5036589;28;19960;-73
2022/11/27 11:15:14;;;;;;;;;;;19.40;47.10;;;;;;5035743;28;19947;-73
2022/11/27 11:17:40;;;;;;;;;;;19.30;47.00;;;;;;5054567;28;19958;-73
2022/11/27 11:20:18;;;;;;;;;;;19.40;47.00;;;;;;5035475;28;19909;-74
2022/11/27 11:22:45;;;;;;;;;;;19.30;47.10;;;;;;5024682;28;19974;-73
2022/11/27 11:25:14;;;;;;;;;;;19.30;47.20;;;;;;5033389;28;19916;-73
2022/11/27 11:27:41;;;;;;;;;;;19.40;47.30;;;;;;5030904;28;20003;-73
2022/11/27 11:30:18;;;;;;;;;;;19.70;47.40;;;;;;5045990;28;19920;-74
2022/11/27 11:32:47;;;;;;;;;;;19.90;47.00;;;;;;5044972;28;19966;-73
2022/11/27 11:35:23;;;;;;;;;;;20.20;46.60;;;;;;5044768;28;20595;-73
2022/11/27 11:37:49;;;;;;;;;;;20.40;46.30;;;;;;5039462;28;20293;-73
2022/11/27 11:40:19;;;;;;;;;;;20.60;46.00;;;;;;5045390;28;19913;-74
2022/11/27 11:42:52;;;;;;;;;;;20.80;45.80;;;;;;5043059;28;19960;-74
2022/11/27 11:45:17;;;;;;;;;;;20.90;45.40;;;;;;5046202;28;19920;-74
2022/11/27 11:47:47;;;;;;;;;;;21.10;45.30;;;;;;5028118;28;21985;-74
2022/11/27 11:50:20;;;;;;;;;;;21.20;45.40;;;;;;5027385;28;19921;-75
2022/11/27 11:52:48;;;;;;;;;;;21.30;45.20;;;;;;5032311;28;20430;-75
2022/11/27 11:55:17;;;;;;;;;;;21.40;45.00;;;;;;5027092;28;19924;-74
2022/11/27 11:57:43;;;;;;;;;;;21.40;44.90;;;;;;5044473;28;19916;-74
2022/11/27 12:00:11;;;;;;;;;;;21.50;44.90;;;;;;5042812;28;19923;-74
2022/11/27 12:02:56;;;;;;;;;;;21.50;44.80;;;;;;5045697;28;19920;-74
2022/11/27 12:05:23;;;;;;;;;;;21.60;44.80;;;;;;5029017;28;19944;-73
2022/11/27 12:08:02;;;;;;;;;;;21.60;44.90;;;;;;5008128;28;19921;-74
2022/11/27 12:10:29;;;;;;;;;;;21.70;44.90;;;;;;5044308;28;19928;-74
2022/11/27 12:12:58;;;;;;;;;;;21.70;44.90;;;;;;5027883;28;19921;-74
2022/11/27 12:15:28;;;;;;;;;;;21.70;45.00;;;;;;5022724;28;19913;-74
2022/11/27 12:18:03;;;;;;;;;;;21.80;45.00;;;;;;5028009;28;19917;-74
2022/11/27 12:20:44;;;;;;;;;;;21.80;45.10;;;;;;5044575;28;20446;-73
2022/11/27 12:23:28;;;;;;;;;;;21.80;45.10;;;;;;5043380;28;19917;-74
2022/11/27 12:25:56;;;;;;;;;;;21.90;45.20;;;;;;5029418;28;20442;-73
2022/11/27 12:28:31;;;;;;;;;;;21.90;45.80;;;;;;5025668;28;19998;-72
2022/11/27 12:31:17;;;;;;;;;;;21.90;45.20;;;;;;5044826;28;19917;-73
2022/11/27 12:33:42;;;;;;;;;;;21.90;45.10;;;;;;5027044;28;19921;-74
2022/11/27 12:36:26;;;;;;;;;;;22.00;45.20;;;;;;5044813;28;20358;-73
2022/11/27 12:38:59;;;;;;;;;;;22.00;45.10;;;;;;5042958;28;19917;-73
2022/11/27 12:41:45;;;;;;;;;;;22.00;45.10;;;;;;5031639;28;19913;-73
2022/11/27 12:44:29;;;;;;;;;;;22.00;45.10;;;;;;5031803;28;19920;-73
2022/11/27 12:46:54;;;;;;;;;;;22.00;45.10;;;;;;5030011;28;19917;-74
2022/11/27 12:49:24;;;;;;;;;;;22.10;45.10;;;;;;5047862;28;19912;-73
2022/11/27 12:52:13;;;;;;;;;;;22.00;44.90;;;;;;5045169;28;20266;-74
2022/11/27 12:54:44;;;;;;;;;;;22.10;45.10;;;;;;5029329;28;19916;-75
2022/11/27 12:57:17;;;;;;;;;;;22.10;45.10;;;;;;5028992;28;20349;-74
2022/11/27 12:59:44;;;;;;;;;;;22.10;44.90;;;;;;5027018;28;20003;-74
2022/11/27 13:02:16;;;;;;;;;;;22.10;45.00;;;;;;5021803;28;19921;-74
2022/11/27 13:04:51;;;;;;;;;;;22.10;45.00;;;;;;5027140;28;19978;-74
2022/11/27 13:07:24;;;;;;;;;;;22.20;45.00;;;;;;5015291;28;21078;-74
2022/11/27 13:09:51;;;;;;;;;;;22.20;45.00;;;;;;5019206;28;20046;-74
2022/11/27 13:12:19;;;;;;;;;;;22.20;45.00;;;;;;5031173;28;19913;-74
2022/11/27 13:14:45;;;;;;;;;;;22.20;44.90;;;;;;5028898;28;19913;-74
2022/11/27 13:17:14;;;;;;;;;;;22.20;44.80;;;;;;5028905;28;19975;-74
2022/11/27 13:19:44;;;;;;;;;;;22.20;44.90;;;;;;5031839;28;20334;-75
2022/11/27 13:22:14;;;;;;;;;;;22.20;44.80;;;;;;5024312;28;19913;-74
2022/11/27 13:24:39;;;;;;;;;;;22.20;44.80;;;;;;5029943;28;19951;-74
2022/11/27 13:27:17;;;;;;;;;;;22.30;45.50;;;;;;5028284;28;19916;-75
2022/11/27 13:29:43;;;;;;;;;;;22.20;44.80;;;;;;5033348;28;19960;-74
2022/11/27 13:32:08;;;;;;;;;;;22.20;44.80;;;;;;5051409;28;19963;-74
2022/11/27 13:34:40;;;;;;;;;;;22.30;44.90;;;;;;5051469;28;19917;-74
2022/11/27 13:37:05;;;;;;;;;;;22.30;44.80;;;;;;5034954;28;19948;-74
2022/11/27 13:39:34;;;;;;;;;;;22.30;44.80;;;;;;5043272;28;21459;-73
2022/11/27 13:42:01;;;;;;;;;;;22.30;44.70;;;;;;5047248;28;20019;-73
2022/11/27 13:44:27;;;;;;;;;;;22.20;44.80;;;;;;5013867;28;20388;-74
2022/11/27 13:46:53;;;;;;;;;;;22.20;44.70;;;;;;5023747;28;20476;-73
2022/11/27 13:49:22;;;;;;;;;;;22.20;44.80;;;;;;5051624;28;19920;-74
2022/11/27 13:51:47;;;;;;;;;;;22.20;44.80;;;;;;5036726;28;19917;-74
2022/11/27 13:54:13;;;;;;;;;;;22.20;44.90;;;;;;5022596;28;19970;-74
2022/11/27 13:56:38;;;;;;;;;;;22.30;45.10;;;;;;5054503;28;19963;-74
2022/11/27 13:59:22;;;;;;;;;;;22.20;45.00;;;;;;5047029;28;19966;-72
2022/11/27 14:01:58;;;;;;;;;;;22.30;45.00;;;;;;5016518;28;19917;-75
2022/11/27 14:04:24;;;;;;;;;;;22.30;44.90;;;;;;5048194;28;20065;-74
2022/11/27 14:06:51;;;;;;;;;;;22.30;44.90;;;;;;5035149;28;19988;-74
2022/11/27 14:09:16;;;;;;;;;;;22.30;44.80;;;;;;5030769;28;20031;-74
2022/11/27 14:11:45;;;;;;;;;;;22.20;44.80;;;;;;5048799;28;20025;-74
2022/11/27 14:14:12;;;;;;;;;;;22.30;44.80;;;;;;5043980;28;19958;-74
2022/11/27 14:16:38;;;;;;;;;;;22.20;44.70;;;;;;5047700;28;19924;-73
2022/11/27 14:19:23;;;;;;;;;;;22.20;44.80;;;;;;5016422;28;19921;-74